createdAt,value
2018-02-19T00:01:11.683Z,13.67
2018-02-19T00:03:44.721Z,13.50
2018-02-19T00:06:14.719Z,14.10
2018-02-19T00:08:46.929Z,13.80
2018-02-19T00:11:16.210Z,14.27
2018-02-19T00:13:51.072Z,13.63
2018-02-19T00:16:20.636Z,14.43
2018-02-19T00:18:51.511Z,15.40
2018-02-19T00:21:20.608Z,17.10
2018-02-19T00:23:56.875Z,17.63
2018-02-19T00:26:25.930Z,19.37
2018-02-19T00:28:55.482Z,19.93
2018-02-19T00:31:25.419Z,19.30
2018-02-19T00:33:58.258Z,17.87
2018-02-19T00:36:27.342Z,18.57
2018-02-19T00:38:59.930Z,18.97
2018-02-19T00:41:28.917Z,18.17
2018-02-19T00:44:02.740Z,18.47
2018-02-19T00:46:32.100Z,18.53
2018-02-19T00:49:05.523Z,19.03
2018-02-19T00:51:34.588Z,18.87
2018-02-19T00:54:07.251Z,18.50
2018-02-19T00:56:36.275Z,17.67
2018-02-19T00:59:08.539Z,17.50
2018-02-19T01:01:37.995Z,17.90
2018-02-19T01:04:13.008Z,17.83
2018-02-19T01:06:42.042Z,16.60
2018-02-19T01:09:14.607Z,16.57
2018-02-19T01:11:44.409Z,16.13
2018-02-19T01:14:16.316Z,18.30
2018-02-19T01:16:45.442Z,17.87
2018-02-19T01:19:17.897Z,17.77
2018-02-19T01:21:47.289Z,16.20
2018-02-19T01:24:20.260Z,17.03
2018-02-19T01:26:49.985Z,15.60
2018-02-19T01:29:22.144Z,16.93
2018-02-19T01:31:51.127Z,17.07
2018-02-19T01:34:23.671Z,16.07
2018-02-19T01:36:55.611Z,16.50
2018-02-19T01:39:25.456Z,15.33
2018-02-19T01:41:55.232Z,15.97
2018-02-19T01:44:27.721Z,15.43
2018-02-19T01:46:56.631Z,16.30
2018-02-19T01:49:29.634Z,15.70
2018-02-19T01:51:58.548Z,15.13
2018-02-19T01:54:31.548Z,14.60
2018-02-19T01:57:00.496Z,15.27
2018-02-19T01:59:33.375Z,15.50
2018-02-19T02:02:02.705Z,14.87
2018-02-19T02:04:35.359Z,16.33
2018-02-19T02:07:05.137Z,14.40
2018-02-19T02:09:37.575Z,15.63
2018-02-19T02:12:08.045Z,14.00
2018-02-19T02:14:40.018Z,13.87
2018-02-19T02:17:11.998Z,13.70
2018-02-19T02:19:42.208Z,14.60
2018-02-19T02:22:11.165Z,13.90
2018-02-19T02:24:44.172Z,14.40
2018-02-19T02:27:13.857Z,14.57
2018-02-19T02:29:46.221Z,14.83
2018-02-19T02:32:15.457Z,13.03
2018-02-19T02:34:48.394Z,12.87
2018-02-19T02:37:17.399Z,14.53
2018-02-19T02:39:50.657Z,14.23
2018-02-19T02:42:19.695Z,14.63
2018-02-19T02:44:53.231Z,13.70
2018-02-19T02:47:22.488Z,13.43
2018-02-19T02:49:55.194Z,14.23
2018-02-19T02:52:24.133Z,13.30
2018-02-19T02:54:57.783Z,13.33
2018-02-19T02:57:27.482Z,12.93
2018-02-19T02:59:59.988Z,13.43
2018-02-19T03:02:29.714Z,14.73
2018-02-19T03:05:02.415Z,12.50
2018-02-19T03:07:31.421Z,14.43
2018-02-19T03:10:04.501Z,14.30
2018-02-19T03:12:33.563Z,13.40
2018-02-19T03:15:06.579Z,13.17
2018-02-19T03:17:35.912Z,13.23
2018-02-19T03:20:09.550Z,13.73
2018-02-19T03:22:38.626Z,13.70
2018-02-19T03:25:13.611Z,15.60
2018-02-19T03:27:42.605Z,14.27
2018-02-19T03:30:13.806Z,12.87
2018-02-19T03:32:43.851Z,14.40
2018-02-19T03:35:19.909Z,12.83
2018-02-19T03:37:48.856Z,14.13
2018-02-19T03:40:18.540Z,13.30
2018-02-19T03:42:48.259Z,13.07
2018-02-19T03:45:21.030Z,13.63
2018-02-19T03:47:50.759Z,12.63
2018-02-19T03:50:23.092Z,13.47
2018-02-19T03:52:52.362Z,13.53
2018-02-19T03:55:24.556Z,13.60
2018-02-19T03:57:53.540Z,13.97
2018-02-19T04:00:25.527Z,13.37
2018-02-19T04:02:55.304Z,14.17
2018-02-19T04:05:28.570Z,15.17
2018-02-19T04:07:57.811Z,13.27
2018-02-19T04:10:29.513Z,14.47
2018-02-19T04:12:58.441Z,14.73
2018-02-19T04:15:31.702Z,13.73
2018-02-19T04:18:00.698Z,14.50
2018-02-19T04:20:33.395Z,15.80
2018-02-19T04:23:03.102Z,14.63
2018-02-19T04:25:35.404Z,15.00
2018-02-19T04:28:05.135Z,14.30
2018-02-19T04:30:37.825Z,15.37
2018-02-19T04:33:07.073Z,14.03
2018-02-19T04:35:38.723Z,14.83
2018-02-19T04:38:07.695Z,14.37
2018-02-19T04:40:41.750Z,14.20
2018-02-19T04:43:10.824Z,14.73
2018-02-19T04:45:43.998Z,16.90
2018-02-19T04:48:13.281Z,13.80
2018-02-19T04:50:45.808Z,14.63
2018-02-19T04:53:14.803Z,15.17
2018-02-19T04:55:47.925Z,14.67
2018-02-19T04:58:17.012Z,15.20
2018-02-19T05:00:50.039Z,15.33
2018-02-19T05:03:19.034Z,15.47
2018-02-19T05:05:52.319Z,15.33
2018-02-19T05:08:21.639Z,15.00
2018-02-19T05:10:54.456Z,15.43
2018-02-19T05:13:24.148Z,15.33
2018-02-19T05:15:57.153Z,14.80
2018-02-19T05:18:26.894Z,15.27
2018-02-19T05:20:58.016Z,14.83
2018-02-19T05:23:35.574Z,15.70
2018-02-19T05:26:04.516Z,15.23
2018-02-19T05:28:33.492Z,14.73
2018-02-19T05:31:04.029Z,15.20
2018-02-19T05:33:36.143Z,14.57
2018-02-19T05:36:07.015Z,14.77
2018-02-19T05:38:35.981Z,14.60
2018-02-19T05:41:08.920Z,13.67
2018-02-19T05:43:37.905Z,13.73
2018-02-19T05:46:11.920Z,14.33
2018-02-19T05:48:41.383Z,14.77
2018-02-19T05:51:14.565Z,13.97
2018-02-19T05:53:44.633Z,15.63
2018-02-19T05:56:16.488Z,13.90
2018-02-19T05:58:45.445Z,13.60
2018-02-19T06:01:17.798Z,13.37
2018-02-19T06:03:47.110Z,13.97
2018-02-19T06:06:20.396Z,14.07
2018-02-19T06:08:50.155Z,14.27
2018-02-19T06:11:22.115Z,14.53
2018-02-19T06:13:51.121Z,15.40
2018-02-19T06:16:24.217Z,14.50
2018-02-19T06:18:53.533Z,13.80
2018-02-19T06:21:26.147Z,14.57
2018-02-19T06:23:55.140Z,14.70
2018-02-19T06:26:28.507Z,13.87
2018-02-19T06:29:04.679Z,14.60
2018-02-19T06:31:34.207Z,14.50
2018-02-19T06:34:03.325Z,13.70
2018-02-19T06:36:32.401Z,13.03
2018-02-19T06:39:03.079Z,13.10
2018-02-19T06:41:34.798Z,13.90
2018-02-19T06:44:03.808Z,12.67
2018-02-19T06:46:36.882Z,14.53
2018-02-19T06:49:05.876Z,14.00
2018-02-19T06:51:40.430Z,12.93
2018-02-19T06:54:09.391Z,13.13
2018-02-19T06:56:41.956Z,12.70
2018-02-19T06:59:10.967Z,11.87
2018-02-19T07:01:44.143Z,12.87
2018-02-19T07:04:13.503Z,13.67
2018-02-19T07:06:46.625Z,13.47
2018-02-19T07:09:15.625Z,14.07
2018-02-19T07:11:48.484Z,14.53
2018-02-19T07:14:17.443Z,14.03
2018-02-19T07:16:52.015Z,14.10
2018-02-19T07:19:21.532Z,14.80
2018-02-19T07:21:54.029Z,13.43
2018-02-19T07:24:23.093Z,14.37
2018-02-19T07:26:56.941Z,13.57
2018-02-19T07:29:25.962Z,14.67
2018-02-19T07:31:59.655Z,14.30
2018-02-19T07:34:30.332Z,15.67
2018-02-19T07:37:00.320Z,14.87
2018-02-19T07:39:29.366Z,14.90
2018-02-19T07:42:04.161Z,15.27
2018-02-19T07:44:33.219Z,14.97
2018-02-19T07:47:06.324Z,14.50
2018-02-19T07:49:35.615Z,15.20
2018-02-19T07:52:09.091Z,13.17
2018-02-19T07:54:38.204Z,15.30
2018-02-19T07:57:12.350Z,13.73
2018-02-19T07:59:41.452Z,14.50
2018-02-19T08:02:15.468Z,14.23
2018-02-19T08:04:45.628Z,14.00
2018-02-19T08:07:16.604Z,15.03
2018-02-19T08:09:45.648Z,15.07
2018-02-19T08:12:18.366Z,14.17
2018-02-19T08:14:47.380Z,14.57
2018-02-19T08:17:21.470Z,14.87
2018-02-19T08:19:51.049Z,15.37
2018-02-19T08:22:22.431Z,14.63
2018-02-19T08:24:51.573Z,15.77
2018-02-19T08:27:24.813Z,14.33
2018-02-19T08:29:53.956Z,14.50
2018-02-19T08:32:26.496Z,16.43
2018-02-19T08:34:55.847Z,15.57
2018-02-19T08:37:28.289Z,15.00
2018-02-19T08:39:57.482Z,13.83
2018-02-19T08:42:30.352Z,14.80
2018-02-19T08:44:59.621Z,15.17
2018-02-19T08:47:33.877Z,14.77
2018-02-19T08:50:04.332Z,14.60
2018-02-19T08:52:34.417Z,14.10
2018-02-19T08:55:03.539Z,14.47
2018-02-19T08:57:36.968Z,13.53
2018-02-19T09:00:06.196Z,13.83
2018-02-19T09:02:39.584Z,13.07
2018-02-19T09:05:08.944Z,12.97
2018-02-19T09:07:41.197Z,14.43
2018-02-19T09:10:10.208Z,13.00
2018-02-19T09:12:44.237Z,12.87
2018-02-19T09:15:14.653Z,14.40
2018-02-19T09:17:45.830Z,14.23
2018-02-19T09:20:15.284Z,14.17
2018-02-19T09:22:47.739Z,14.67
2018-02-19T09:25:16.792Z,16.57
2018-02-19T09:27:50.127Z,17.30
2018-02-19T09:30:20.117Z,15.87
2018-02-19T09:32:52.827Z,15.90
2018-02-19T09:35:22.212Z,15.20
2018-02-19T09:37:55.012Z,14.97
2018-02-19T09:40:24.167Z,16.13
2018-02-19T09:42:58.631Z,15.13
2018-02-19T09:45:27.771Z,15.07
2018-02-19T09:48:01.404Z,13.93
2018-02-19T09:50:31.524Z,14.40
2018-02-19T17:41:49.825Z,15.07
2018-02-19T17:46:50.207Z,17.23
2018-02-19T17:49:23.743Z,17.07
2018-02-19T17:52:00.277Z,17.43
2018-02-19T17:54:42.752Z,17.77
2018-02-19T17:57:16.660Z,18.00
2018-02-19T17:59:50.668Z,18.87
2018-02-19T18:02:25.010Z,18.13
2018-02-19T18:04:59.001Z,19.80
2018-02-19T18:07:42.528Z,18.57
2018-02-19T18:10:17.408Z,19.90
2018-02-19T18:12:54.270Z,24.17
2018-02-19T18:15:31.242Z,21.30
2018-02-19T18:18:05.439Z,17.63
2018-02-19T18:23:20.420Z,17.87
2018-02-19T18:25:56.370Z,19.62
2018-02-19T18:28:32.335Z,19.70
2018-02-19T18:31:07.750Z,18.90
2018-02-19T18:33:43.211Z,20.07
2018-02-19T18:36:19.398Z,19.30
2018-02-19T18:38:59.545Z,19.10
2018-02-19T18:41:33.068Z,17.60
2018-02-19T18:44:07.309Z,17.87
2018-02-19T18:46:41.984Z,18.23
2018-02-19T18:49:18.480Z,18.83
2018-02-19T18:51:52.733Z,19.27
2018-02-19T18:54:29.916Z,23.55
2018-02-19T18:57:12.607Z,18.63
2018-02-19T18:59:47.958Z,17.40
2018-02-19T19:02:22.463Z,18.83
2018-02-19T19:04:59.827Z,17.13
2018-02-19T19:07:40.836Z,18.83
2018-02-19T19:10:55.547Z,18.17
2018-02-19T19:13:32.423Z,19.30
2018-02-19T19:16:16.057Z,17.80
2018-02-19T19:18:54.687Z,17.20
2018-02-19T19:21:29.848Z,19.23
2018-02-19T19:24:04.284Z,18.80
2018-02-19T19:26:39.028Z,18.73
2018-02-19T19:29:26.169Z,19.03
2018-02-19T19:32:03.932Z,17.47
2018-02-19T19:34:40.033Z,18.67
2018-02-19T19:37:14.349Z,18.23
2018-02-19T19:39:49.821Z,19.97
2018-02-19T19:44:51.680Z,17.87
2018-02-19T19:47:34.820Z,19.23
2018-02-19T19:50:10.521Z,18.00
2018-02-19T19:52:44.712Z,19.30
2018-02-19T19:55:18.048Z,18.80
2018-02-19T19:57:51.441Z,18.47
2018-02-19T20:00:34.575Z,18.07
2018-02-19T20:03:08.184Z,18.37
2018-02-19T20:05:47.410Z,17.30
2018-02-19T20:08:23.277Z,18.97
2018-02-19T20:10:58.833Z,19.40
2018-02-19T20:13:39.499Z,18.00
2018-02-19T20:16:12.798Z,18.63
2018-02-19T20:18:49.092Z,18.27
2018-02-19T20:21:22.386Z,19.43
2018-02-19T20:23:55.333Z,19.67
2018-02-19T20:26:30.400Z,19.03
2018-02-19T20:29:06.890Z,18.67
2018-02-19T20:31:49.940Z,18.93
2018-02-19T20:34:24.736Z,17.63
2018-02-19T20:36:59.620Z,19.30
2018-02-19T20:39:34.992Z,18.40
2018-02-19T20:42:11.154Z,18.23
2018-02-19T20:47:28.613Z,19.07
2018-02-19T20:50:03.705Z,17.90
2018-02-19T20:52:38.220Z,18.03
2018-02-19T20:55:11.445Z,18.60
2018-02-19T20:57:47.602Z,19.37
2018-02-19T21:00:21.910Z,19.23
2018-02-19T21:03:02.225Z,19.00
2018-02-19T21:05:35.838Z,18.33
2018-02-19T21:08:10.534Z,18.27
2018-02-19T21:10:43.599Z,18.90
2018-02-19T21:13:19.606Z,19.03
2018-02-19T21:15:53.521Z,19.17
2018-02-19T21:18:26.460Z,19.17
2018-02-19T21:21:02.055Z,19.30
2018-02-19T21:23:35.338Z,19.97
2018-02-19T21:26:13.848Z,19.27
2018-02-19T21:28:47.210Z,20.27
2018-02-19T21:31:22.002Z,19.40
2018-02-19T21:33:54.866Z,20.20
2018-02-19T21:36:28.688Z,19.60
2018-02-19T21:39:01.142Z,19.87
2018-02-19T21:41:33.693Z,19.73
2018-02-19T21:44:05.296Z,18.47
2018-02-19T21:46:36.981Z,19.20
2018-02-19T21:49:09.355Z,18.77
2018-02-19T21:51:41.551Z,19.90
2018-02-19T21:54:12.834Z,19.93
2018-02-19T21:56:42.494Z,20.57
2018-02-19T21:59:13.206Z,18.33
2018-02-19T22:01:43.895Z,20.17
2018-02-19T22:04:13.113Z,18.93
2018-02-19T22:06:43.631Z,21.37
2018-02-19T22:09:13.665Z,18.13
2018-02-19T22:11:45.698Z,20.07
2018-02-19T22:14:17.436Z,18.83
2018-02-19T22:16:49.402Z,18.37
2018-02-19T22:19:22.013Z,18.73
2018-02-19T22:21:56.008Z,19.83
2018-02-19T22:24:27.059Z,18.50
2018-02-19T22:26:58.146Z,19.60
2018-02-19T22:29:29.976Z,17.87
2018-02-19T22:32:01.352Z,20.13
2018-02-19T22:34:31.902Z,18.17
2018-02-19T22:37:01.742Z,17.43
2018-02-19T22:39:31.048Z,18.63
2018-02-19T22:42:00.758Z,18.93
2018-02-19T22:44:30.500Z,19.80
2018-02-19T22:47:00.329Z,18.87
2018-02-19T22:49:30.786Z,19.50
2018-02-19T22:52:00.066Z,18.83
2018-02-19T22:54:29.096Z,18.13
2018-02-19T22:56:58.467Z,19.17
2018-02-19T22:59:28.171Z,18.30
2018-02-19T23:01:57.250Z,19.03
2018-02-19T23:04:26.648Z,18.47
2018-02-19T23:07:08.751Z,18.60
2018-02-19T23:09:38.292Z,18.90
2018-02-19T23:12:07.362Z,19.00
2018-02-19T23:14:36.359Z,18.10
2018-02-19T23:17:05.769Z,19.00
2018-02-19T23:19:35.111Z,17.90
2018-02-19T23:22:06.800Z,17.20
2018-02-19T23:24:36.076Z,19.00
2018-02-19T23:27:08.952Z,17.97
2018-02-19T23:29:37.965Z,18.47
2018-02-19T23:32:13.125Z,18.47
2018-02-19T23:34:42.238Z,17.83
2018-02-19T23:37:13.825Z,19.03
2018-02-19T23:39:44.052Z,18.63
2018-02-19T23:42:16.916Z,19.40
2018-02-19T23:44:45.888Z,18.83
2018-02-19T23:47:18.301Z,19.90
2018-02-19T23:49:48.215Z,19.93
2018-02-19T23:52:20.556Z,19.60
2018-02-19T23:54:50.521Z,20.60
2018-02-19T23:57:22.764Z,20.10
2018-02-19T23:59:52.497Z,21.30
